Time;durP1;ratioP1;P1;durP2;ratioP2;P2;SDS_P1;SDS_P2;PMS_P1;PMS_P2;Temp;Humidity;BMP_temperature;BMP_pressure;BME280_temperature;BME280_humidity;BME280_pressure;Samples;Min_cycle;Max_cycle;Signal;HPM_P1;HPM_P2
2023/07/17 00:00:24;;;;;;;;;;;;;;;17.91;100.00;101558.25;5031625;28;19917;-72
2023/07/17 00:02:49;;;;;;;;;;;;;;;17.70;100.00;101552.25;5030201;28;19913;-74
2023/07/17 00:05:14;;;;;;;;;;;;;;;17.76;100.00;101554.59;5012935;28;20379;-74
2023/07/17 00:07:40;;;;;;;;;;;;;;;17.75;100.00;101552.84;5011806;28;20458;-69
2023/07/17 00:10:09;;;;;;;;;;;;;;;17.78;100.00;101550.03;5011182;28;20577;-73
2023/07/17 00:12:34;;;;;;;;;;;;;;;17.79;100.00;101554.44;5017032;28;19924;-76
2023/07/17 00:14:59;;;;;;;;;;;;;;;17.65;100.00;101555.16;5032251;28;19913;-62
2023/07/17 00:17:24;;;;;;;;;;;;;;;17.64;100.00;101550.78;5030677;28;20644;-72
2023/07/17 00:19:54;;;;;;;;;;;;;;;17.70;100.00;101549.59;5031519;28;19913;-70
2023/07/17 00:22:19;;;;;;;;;;;;;;;17.66;100.00;101554.19;5030370;28;19943;-71
2023/07/17 00:24:44;;;;;;;;;;;;;;;17.60;100.00;101563.38;5016556;28;19921;-73
2023/07/17 00:27:10;;;;;;;;;;;;;;;17.60;100.00;101562.50;5010689;28;19985;-73
2023/07/17 00:29:35;;;;;;;;;;;;;;;17.55;100.00;101546.78;5009511;28;19913;-71
2023/07/17 00:32:00;;;;;;;;;;;;;;;17.58;100.00;101561.75;5010987;28;19921;-74
2023/07/17 00:34:26;;;;;;;;;;;;;;;17.52;100.00;101558.44;5031155;28;19917;-70
2023/07/17 00:36:51;;;;;;;;;;;;;;;17.57;100.00;101557.38;5030817;28;19913;-73
2023/07/17 00:39:18;;;;;;;;;;;;;;;17.51;100.00;101566.53;5031295;28;19919;-75
2023/07/17 00:41:44;;;;;;;;;;;;;;;17.52;100.00;101565.59;5023478;28;19917;-75
2023/07/17 00:44:09;;;;;;;;;;;;;;;17.43;100.00;101566.94;5010959;28;19971;-76
2023/07/17 00:46:34;;;;;;;;;;;;;;;17.46;100.00;101563.25;5010154;28;19913;-73
2023/07/17 00:49:00;;;;;;;;;;;;;;;17.49;100.00;101557.75;5011232;28;19917;-67
2023/07/17 00:51:25;;;;;;;;;;;;;;;17.48;100.00;101561.34;5028871;28;19916;-75
2023/07/17 00:53:50;;;;;;;;;;;;;;;17.39;100.00;101555.56;5030781;28;20351;-75
2023/07/17 00:56:16;;;;;;;;;;;;;;;17.49;100.00;101560.44;5030348;28;20438;-71
2023/07/17 00:58:41;;;;;;;;;;;;;;;17.42;100.00;101568.72;5031046;28;20332;-70
2023/07/17 01:01:06;;;;;;;;;;;;;;;17.46;100.00;101565.91;5100643;23;21216;-70
2023/07/17 01:03:31;;;;;;;;;;;;;;;17.48;100.00;101569.34;5010141;28;20383;-69
2023/07/17 01:05:57;;;;;;;;;;;;;;;17.44;100.00;101566.00;5010478;28;19917;-76
2023/07/17 01:08:22;;;;;;;;;;;;;;;17.43;100.00;101575.78;5011282;28;19913;-77
2023/07/17 01:10:47;;;;;;;;;;;;;;;17.48;100.00;101575.53;5024802;28;20122;-73
2023/07/17 01:13:13;;;;;;;;;;;;;;;17.50;100.00;101583.44;5008700;28;19996;-69
2023/07/17 01:15:38;;;;;;;;;;;;;;;17.46;100.00;101576.56;5009315;28;19913;-69
2023/07/17 01:18:03;;;;;;;;;;;;;;;17.43;100.00;101577.59;5008714;28;19996;-74
2023/07/17 01:20:28;;;;;;;;;;;;;;;17.37;100.00;101581.41;5009003;28;19948;-61
2023/07/17 01:22:55;;;;;;;;;;;;;;;17.34;100.00;101570.91;5010039;28;19917;-72
2023/07/17 01:25:20;;;;;;;;;;;;;;;17.40;100.00;101578.59;5010286;28;19909;-79
2023/07/17 01:27:45;;;;;;;;;;;;;;;17.35;100.00;101572.66;5010363;28;19913;-75
2023/07/17 01:30:11;;;;;;;;;;;;;;;17.26;100.00;101579.31;5009363;28;19909;-66
2023/07/17 01:32:36;;;;;;;;;;;;;;;17.26;100.00;101584.63;5007908;28;20319;-68
2023/07/17 01:35:02;;;;;;;;;;;;;;;17.28;100.00;101592.56;5009617;28;20008;-75
2023/07/17 01:37:28;;;;;;;;;;;;;;;17.26;100.00;101594.41;5009949;28;19971;-66
2023/07/17 01:39:53;;;;;;;;;;;;;;;17.23;100.00;101592.78;5008930;28;19917;-73
2023/07/17 01:42:18;;;;;;;;;;;;;;;17.19;100.00;101585.91;5009691;28;19917;-75
2023/07/17 01:44:44;;;;;;;;;;;;;;;17.13;100.00;101584.38;5009952;28;20420;-68
2023/07/17 01:47:10;;;;;;;;;;;;;;;17.16;100.00;101578.91;5016430;28;19924;-72
2023/07/17 01:49:35;;;;;;;;;;;;;;;17.24;100.00;101580.31;5027684;28;19920;-73
2023/07/17 01:52:00;;;;;;;;;;;;;;;17.16;100.00;101576.22;5029236;28;19967;-74
2023/07/17 01:54:25;;;;;;;;;;;;;;;17.13;100.00;101575.53;5030290;28;19940;-72
2023/07/17 01:56:51;;;;;;;;;;;;;;;17.15;100.00;101582.50;5014843;28;19917;-71
2023/07/17 01:59:16;;;;;;;;;;;;;;;17.02;100.00;101576.03;5009928;28;19928;-72
2023/07/17 02:01:42;;;;;;;;;;;;;;;17.05;100.00;101582.09;5008670;28;19917;-73
2023/07/17 02:04:07;;;;;;;;;;;;;;;16.98;100.00;101580.63;5010098;28;19917;-65
2023/07/17 02:06:32;;;;;;;;;;;;;;;16.98;100.00;101582.47;5027610;28;19917;-71
2023/07/17 02:08:57;;;;;;;;;;;;;;;17.02;100.00;101573.38;5029746;28;19924;-77
2023/07/17 02:11:26;;;;;;;;;;;;;;;16.97;100.00;101576.25;5029030;28;19913;-72
2023/07/17 02:13:52;;;;;;;;;;;;;;;17.08;100.00;101574.91;5025799;28;20045;-73
2023/07/17 02:16:17;;;;;;;;;;;;;;;17.02;100.00;101578.69;5008683;28;20024;-72
2023/07/17 02:18:42;;;;;;;;;;;;;;;17.09;100.00;101577.47;5008726;28;19920;-71
2023/07/17 02:21:08;;;;;;;;;;;;;;;17.10;100.00;101579.19;5009500;28;19913;-75
2023/07/17 02:23:34;;;;;;;;;;;;;;;17.10;100.00;101573.03;5008790;28;19918;-69
2023/07/17 02:25:59;;;;;;;;;;;;;;;17.07;100.00;101573.19;5023244;28;19924;-70
2023/07/17 02:28:24;;;;;;;;;;;;;;;17.02;100.00;101581.38;5029183;28;19920;-69
2023/07/17 02:30:49;;;;;;;;;;;;;;;17.03;100.00;101580.41;5027889;28;19913;-75
2023/07/17 02:33:14;;;;;;;;;;;;;;;17.02;100.00;101581.38;5029011;28;19913;-60
2023/07/17 02:35:40;;;;;;;;;;;;;;;17.02;100.00;101578.69;5007196;28;19927;-70
2023/07/17 02:38:05;;;;;;;;;;;;;;;17.00;100.00;101583.22;5009208;28;19994;-71
2023/07/17 02:40:30;;;;;;;;;;;;;;;17.00;100.00;101583.22;5009075;28;19913;-71
2023/07/17 02:42:55;;;;;;;;;;;;;;;16.99;100.00;101581.50;5015306;28;19956;-74
2023/07/17 02:45:21;;;;;;;;;;;;;;;16.91;100.00;101590.75;5028383;28;19917;-69
2023/07/17 02:47:46;;;;;;;;;;;;;;;17.02;100.00;101592.00;5027990;28;20575;-72
2023/07/17 02:50:11;;;;;;;;;;;;;;;16.95;100.00;101583.47;5028615;28;19913;-74
2023/07/17 02:52:36;;;;;;;;;;;;;;;16.95;100.00;101590.59;5029143;28;20418;-70
2023/07/17 02:55:04;;;;;;;;;;;;;;;16.92;100.00;101592.44;5028076;28;19964;-63
2023/07/17 02:57:29;;;;;;;;;;;;;;;17.04;100.00;101601.63;5028359;28;20409;-70
2023/07/17 02:59:54;;;;;;;;;;;;;;;17.15;100.00;101597.63;5029053;28;19913;-69
2023/07/17 03:02:20;;;;;;;;;;;;;;;17.15;100.00;101601.16;5026140;28;19927;-72
2023/07/17 03:04:45;;;;;;;;;;;;;;;17.23;100.00;101605.22;5007404;28;19917;-72
2023/07/17 03:07:10;;;;;;;;;;;;;;;17.21;100.00;101605.31;5008723;28;20438;-73
2023/07/17 03:09:36;;;;;;;;;;;;;;;16.98;100.00;101598.44;5012436;28;20403;-71
2023/07/17 03:12:02;;;;;;;;;;;;;;;16.98;100.00;101606.41;5014845;28;19917;-73
2023/07/17 03:14:27;;;;;;;;;;;;;;;17.07;100.00;101606.00;5012638;28;19917;-70
2023/07/17 03:16:52;;;;;;;;;;;;;;;17.12;100.00;101605.75;5012733;28;19960;-73
2023/07/17 03:19:17;;;;;;;;;;;;;;;17.12;100.00;101608.41;5013736;28;19965;-71
2023/07/17 03:21:42;;;;;;;;;;;;;;;17.16;100.00;101604.69;5012932;28;19963;-75
2023/07/17 03:24:08;;;;;;;;;;;;;;;17.16;100.00;101610.84;5013626;28;19924;-73
2023/07/17 03:26:33;;;;;;;;;;;;;;;17.25;100.00;101606.03;5012786;28;19914;-75
2023/07/17 03:28:58;;;;;;;;;;;;;;;17.24;100.00;101606.94;5012517;28;19921;-59
2023/07/17 03:31:24;;;;;;;;;;;;;;;17.26;100.00;101610.41;5011601;28;19920;-70
2023/07/17 03:33:49;;;;;;;;;;;;;;;17.25;100.00;101614.84;5012569;28;19917;-73
2023/07/17 03:36:14;;;;;;;;;;;;;;;17.25;100.00;101608.69;5012967;28;20666;-73
2023/07/17 03:38:40;;;;;;;;;;;;;;;17.14;100.00;101607.41;5012473;28;19921;-69
2023/07/17 03:41:06;;;;;;;;;;;;;;;17.04;100.00;101603.47;5012262;28;20342;-72
2023/07/17 03:43:31;;;;;;;;;;;;;;;17.00;100.00;101604.53;5011839;28;20004;-74
2023/07/17 03:45:56;;;;;;;;;;;;;;;16.91;100.00;101611.16;5011683;28;20458;-73
2023/07/17 03:48:21;;;;;;;;;;;;;;;16.84;100.00;101605.28;5012659;28;20283;-58
2023/07/17 03:50:47;;;;;;;;;;;;;;;16.88;100.00;101592.69;5012203;28;19913;-68
2023/07/17 03:53:12;;;;;;;;;;;;;;;16.81;100.00;101608.09;5027898;28;20330;-74
2023/07/17 03:55:38;;;;;;;;;;;;;;;16.78;100.00;101594.94;5032201;28;19917;-71
2023/07/17 03:58:04;;;;;;;;;;;;;;;16.77;100.00;101610.03;5032442;28;19939;-71
2023/07/17 04:00:30;;;;;;;;;;;;;;;16.58;100.00;101609.19;5030589;28;19913;-71
2023/07/17 04:02:55;;;;;;;;;;;;;;;16.57;100.00;101611.00;5034354;28;19924;-75
2023/07/17 04:05:20;;;;;;;;;;;;;;;16.63;100.00;101615.16;5034024;28;20327;-73
2023/07/17 04:07:45;;;;;;;;;;;;;;;16.75;100.00;101613.72;5034055;28;19909;-71
2023/07/17 04:10:10;;;;;;;;;;;;;;;16.84;100.00;101620.38;5016475;28;19945;-73
2023/07/17 04:12:36;;;;;;;;;;;;;;;16.91;100.00;101616.47;5033244;28;19913;-71
2023/07/17 04:15:01;;;;;;;;;;;;;;;16.93;100.00;101622.59;5032644;28;19909;-62
2023/07/17 04:17:26;;;;;;;;;;;;;;;17.05;100.00;101624.69;5034287;28;19913;-75
2023/07/17 04:19:51;;;;;;;;;;;;;;;17.10;100.00;101621.78;5021321;28;19928;-70
2023/07/17 04:22:17;;;;;;;;;;;;;;;17.14;100.00;101623.41;5015369;28;19964;-73
2023/07/17 04:24:42;;;;;;;;;;;;;;;17.17;100.00;101627.69;5014178;28;20340;-72
2023/07/17 04:27:07;;;;;;;;;;;;;;;17.13;100.00;101621.66;5014320;28;19917;-66
2023/07/17 04:29:32;;;;;;;;;;;;;;;17.09;100.00;101629.84;5026892;28;19962;-73
2023/07/17 04:31:57;;;;;;;;;;;;;;;17.16;100.00;101626.81;5033453;28;20010;-69
2023/07/17 04:34:23;;;;;;;;;;;;;;;17.26;100.00;101637.03;5032830;28;19920;-74
2023/07/17 04:36:48;;;;;;;;;;;;;;;17.38;100.00;101638.22;5033543;28;20355;-72
2023/07/17 04:39:14;;;;;;;;;;;;;;;17.34;100.00;101639.31;5031878;28;20358;-72
2023/07/17 04:41:39;;;;;;;;;;;;;;;17.35;100.00;101647.25;5028512;28;19940;-70
2023/07/17 04:44:04;;;;;;;;;;;;;;;17.47;100.00;101644.88;5026331;28;19918;-71
2023/07/17 04:46:30;;;;;;;;;;;;;;;17.48;100.00;101646.59;5010795;28;20422;-73
2023/07/17 04:48:55;;;;;;;;;;;;;;;17.41;100.00;101654.94;5013585;28;19937;-73
2023/07/17 04:51:20;;;;;;;;;;;;;;;17.57;100.00;101654.13;5011918;28;19914;-75
2023/07/17 04:53:46;;;;;;;;;;;;;;;17.65;100.00;101653.75;5014006;28;19924;-75
2023/07/17 04:56:11;;;;;;;;;;;;;;;17.77;100.00;101668.25;5013105;28;19974;-67
2023/07/17 04:58:37;;;;;;;;;;;;;;;17.77;100.00;101662.91;5015859;28;20785;-76
2023/07/17 05:01:03;;;;;;;;;;;;;;;17.87;100.00;101669.50;5022248;28;19917;-70
2023/07/17 05:03:29;;;;;;;;;;;;;;;17.89;100.00;101662.28;5009148;28;20660;-75
2023/07/17 05:05:54;;;;;;;;;;;;;;;18.00;100.00;101668.88;5011194;28;19920;-72
2023/07/17 05:08:19;;;;;;;;;;;;;;;17.98;100.00;101676.94;5012001;28;20584;-60
2023/07/17 05:10:57;;;;;;;;;;;;;;;18.42;100.00;101677.34;5012966;28;20384;-72
2023/07/17 05:13:23;;;;;;;;;;;;;;;18.02;100.00;101670.50;5011767;28;19939;-75
2023/07/17 05:15:49;;;;;;;;;;;;;;;17.97;100.00;101687.69;5009954;28;19917;-62
2023/07/17 05:18:14;;;;;;;;;;;;;;;17.99;100.00;101673.34;5014407;28;19917;-74
2023/07/17 05:20:41;;;;;;;;;;;;;;;17.94;100.00;101681.56;5035731;28;20403;-78
2023/07/17 05:23:07;;;;;;;;;;;;;;;18.10;100.00;101683.47;5032109;28;20351;-79
2023/07/17 05:25:32;;;;;;;;;;;;;;;18.15;100.00;101691.25;5030662;28;19920;-76
2023/07/17 05:27:57;;;;;;;;;;;;;;;17.96;100.00;101692.16;5027061;28;19921;-64
2023/07/17 05:30:22;;;;;;;;;;;;;;;17.84;100.00;101700.78;5023397;28;20334;-70
2023/07/17 05:32:48;;;;;;;;;;;;;;;17.89;100.00;101699.63;5010265;28;19924;-70
2023/07/17 05:35:13;;;;;;;;;;;;;;;17.88;100.00;101707.69;5009347;28;19913;-77
2023/07/17 05:37:38;;;;;;;;;;;;;;;17.74;100.00;101701.25;5009663;28;19917;-75
2023/07/17 05:40:05;;;;;;;;;;;;;;;17.86;100.00;101707.78;5009014;28;19918;-75
2023/07/17 05:42:30;;;;;;;;;;;;;;;17.88;100.00;101711.19;5009273;28;19914;-76
2023/07/17 05:44:55;;;;;;;;;;;;;;;17.94;100.00;101707.34;5009148;28;19922;-68
2023/07/17 05:47:20;;;;;;;;;;;;;;;17.83;100.00;101707.94;5027963;28;19917;-75
2023/07/17 05:49:45;;;;;;;;;;;;;;;17.88;100.00;101721.88;5008167;28;19921;-72
2023/07/17 05:52:11;;;;;;;;;;;;;;;17.87;100.00;101714.81;5009913;28;19953;-73
2023/07/17 05:54:36;;;;;;;;;;;;;;;18.03;100.00;101716.72;5008204;28;19983;-76
2023/07/17 05:57:01;;;;;;;;;;;;;;;18.22;100.00;101715.78;5009533;28;19963;-63
2023/07/17 05:59:26;;;;;;;;;;;;;;;18.47;100.00;101728.66;5009734;28;19932;-73
2023/07/17 06:01:52;;;;;;;;;;;;;;;18.57;100.00;101721.03;5008369;28;20015;-77
2023/07/17 06:04:17;;;;;;;;;;;;;;;18.60;100.00;101723.53;5009751;28;20446;-76
2023/07/17 06:06:42;;;;;;;;;;;;;;;18.66;100.00;101723.19;5016641;28;19920;-77
2023/07/17 06:09:07;;;;;;;;;;;;;;;18.63;100.00;101728.69;5010079;28;19913;-67
2023/07/17 06:11:32;;;;;;;;;;;;;;;18.66;100.00;101733.88;5008216;28;20578;-76
2023/07/17 06:13:58;;;;;;;;;;;;;;;18.63;100.00;101739.38;5011026;28;20285;-76
2023/07/17 06:16:23;;;;;;;;;;;;;;;18.81;100.00;101740.19;5008511;28;20402;-68
2023/07/17 06:18:48;;;;;;;;;;;;;;;18.73;100.00;101741.56;5007000;28;19928;-68
2023/07/17 06:21:13;;;;;;;;;;;;;;;18.71;100.00;101735.44;5009429;28;20311;-71
2023/07/17 06:23:39;;;;;;;;;;;;;;;18.62;100.00;101737.66;5009006;28;19917;-72
2023/07/17 06:26:04;;;;;;;;;;;;;;;18.74;100.00;101748.59;5007648;28;19940;-73
2023/07/17 06:28:30;;;;;;;;;;;;;;;18.80;100.00;101748.28;5008783;28;19922;-75
2023/07/17 06:30:55;;;;;;;;;;;;;;;18.98;100.00;101745.53;5006620;28;19945;-73
2023/07/17 06:33:21;;;;;;;;;;;;;;;19.21;100.00;101752.31;5008596;28;19933;-69
2023/07/17 06:35:47;;;;;;;;;;;;;;;19.35;100.00;101748.84;5008611;28;20015;-72
2023/07/17 06:38:12;;;;;;;;;;;;;;;19.45;100.00;101754.56;5008538;28;20009;-76
2023/07/17 06:40:38;;;;;;;;;;;;;;;19.37;100.00;101752.31;5012918;28;19925;-79
2023/07/17 06:43:04;;;;;;;;;;;;;;;19.24;100.00;101757.50;5024672;28;19971;-62
2023/07/17 06:45:29;;;;;;;;;;;;;;;19.38;100.00;101755.84;5014023;28;19917;-66
2023/07/17 06:47:54;;;;;;;;;;;;;;;19.42;100.00;101760.06;5014727;28;19972;-76
2023/07/17 06:50:20;;;;;;;;;;;;;;;19.32;100.00;101770.41;5030094;28;19909;-70
2023/07/17 06:52:45;;;;;;;;;;;;;;;19.15;100.00;101777.53;5014333;28;19971;-73
2023/07/17 06:55:10;;;;;;;;;;;;;;;18.99;100.00;101769.50;5014693;28;19967;-65
2023/07/17 06:57:35;;;;;;;;;;;;;;;19.06;100.00;101764.69;5014614;28;19964;-67
2023/07/17 07:00:01;;;;;;;;;;;;;;;19.22;100.00;101764.72;5014126;28;19968;-73
2023/07/17 07:02:26;;;;;;;;;;;;;;;19.43;100.00;101761.78;5015219;28;20300;-68
2023/07/17 07:04:51;;;;;;;;;;;;;;;19.63;100.00;101763.28;5014860;28;19920;-72
2023/07/17 07:07:16;;;;;;;;;;;;;;;19.70;99.96;101763.81;5015371;28;19913;-68
2023/07/17 07:09:42;;;;;;;;;;;;;;;19.88;99.29;101763.69;5014789;28;20367;-73
2023/07/17 07:12:07;;;;;;;;;;;;;;;20.09;98.27;101769.59;5015033;28;20544;-76
2023/07/17 07:14:32;;;;;;;;;;;;;;;20.12;97.61;101774.78;5014834;28;19941;-73
2023/07/17 07:16:58;;;;;;;;;;;;;;;20.29;97.92;101786.28;5015350;28;19968;-61
2023/07/17 07:19:23;;;;;;;;;;;;;;;20.22;96.43;101803.66;5026606;28;19979;-73
2023/07/17 07:21:48;;;;;;;;;;;;;;;20.27;96.39;101789.06;5034730;28;19913;-77
2023/07/17 07:24:13;;;;;;;;;;;;;;;20.37;96.35;101785.78;5035332;28;19945;-74
2023/07/17 07:26:38;;;;;;;;;;;;;;;20.44;95.10;101784.50;5035273;28;19913;-74
2023/07/17 07:29:04;;;;;;;;;;;;;;;20.40;96.33;101794.50;5034191;28;19916;-65
2023/07/17 07:31:29;;;;;;;;;;;;;;;20.55;93.77;101794.53;5032747;28;19913;-74
2023/07/17 07:33:54;;;;;;;;;;;;;;;20.70;93.24;101798.94;5035489;28;19912;-76
2023/07/17 07:36:20;;;;;;;;;;;;;;;20.76;91.76;101794.16;5033841;28;20371;-71
2023/07/17 07:38:45;;;;;;;;;;;;;;;20.73;90.80;101792.53;5015251;28;19925;-70
2023/07/17 07:41:10;;;;;;;;;;;;;;;20.69;90.74;101799.91;5014985;28;20339;-75
2023/07/17 07:43:36;;;;;;;;;;;;;;;20.66;89.80;101802.78;5015230;28;19921;-76
2023/07/17 07:46:01;;;;;;;;;;;;;;;20.46;89.66;101812.00;5018269;28;19917;-73
2023/07/17 07:48:26;;;;;;;;;;;;;;;20.62;90.40;101809.25;5034817;28;19952;-63
2023/07/17 07:50:52;;;;;;;;;;;;;;;20.43;91.70;101814.88;5034601;28;19928;-74
2023/07/17 07:53:17;;;;;;;;;;;;;;;20.43;91.52;101826.44;5032918;28;20019;-76
2023/07/17 07:55:42;;;;;;;;;;;;;;;20.25;90.47;101824.84;5011829;28;19918;-73
2023/07/17 07:58:07;;;;;;;;;;;;;;;20.37;90.95;101821.47;5011653;28;19913;-77
2023/07/17 08:00:33;;;;;;;;;;;;;;;20.29;89.90;101829.09;5011638;28;19925;-70
2023/07/17 08:02:58;;;;;;;;;;;;;;;20.42;88.54;101818.50;5011356;28;20660;-60
2023/07/17 08:05:23;;;;;;;;;;;;;;;20.76;88.49;101815.56;5012240;28;20380;-73
2023/07/17 08:07:48;;;;;;;;;;;;;;;21.08;88.58;101821.63;5011196;28;19979;-76
2023/07/17 08:10:14;;;;;;;;;;;;;;;21.18;87.02;101832.63;5013037;28;20397;-67
2023/07/17 08:12:39;;;;;;;;;;;;;;;21.30;86.07;101830.13;5010743;28;19917;-70
2023/07/17 08:15:05;;;;;;;;;;;;;;;21.31;86.80;101824.66;5010258;28;19920;-78
2023/07/17 08:17:30;;;;;;;;;;;;;;;21.29;86.77;101828.41;5011704;28;19913;-71
2023/07/17 08:19:55;;;;;;;;;;;;;;;21.41;87.53;101834.78;5011154;28;20008;-65
2023/07/17 08:22:20;;;;;;;;;;;;;;;21.46;85.92;101824.63;5010565;28;20578;-75
2023/07/17 08:24:45;;;;;;;;;;;;;;;21.49;85.49;101837.81;5010449;28;20269;-73
2023/07/17 08:27:11;;;;;;;;;;;;;;;21.34;84.16;101843.22;5010642;28;19913;-75
2023/07/17 08:29:36;;;;;;;;;;;;;;;21.40;85.18;101825.03;5008476;28;19917;-72
2023/07/17 08:32:02;;;;;;;;;;;;;;;21.62;85.80;101837.03;5010309;28;19913;-75
2023/07/17 08:34:27;;;;;;;;;;;;;;;21.85;84.05;101832.84;5016010;28;19936;-68
2023/07/17 08:36:52;;;;;;;;;;;;;;;21.91;83.95;101837.81;5010438;28;19963;-68
2023/07/17 08:39:17;;;;;;;;;;;;;;;21.83;83.71;101845.53;5010001;28;20633;-77
2023/07/17 08:41:45;;;;;;;;;;;;;;;21.95;85.50;101830.44;5010567;28;19913;-72
2023/07/17 08:44:11;;;;;;;;;;;;;;;21.94;81.56;101839.44;5028245;28;19932;-71
2023/07/17 08:46:36;;;;;;;;;;;;;;;22.02;80.66;101844.28;5009391;28;20251;-72
2023/07/17 08:49:02;;;;;;;;;;;;;;;22.19;81.83;101854.75;5009614;28;19913;-60
2023/07/17 08:51:27;;;;;;;;;;;;;;;21.87;79.10;101860.44;5025434;28;20264;-73
2023/07/17 08:53:52;;;;;;;;;;;;;;;21.67;79.56;101867.94;5017476;28;19953;-78
2023/07/17 08:56:17;;;;;;;;;;;;;;;21.51;79.86;101862.72;5008763;28;19939;-79
2023/07/17 08:58:43;;;;;;;;;;;;;;;21.58;81.16;101860.50;5010418;28;19913;-77
2023/07/17 09:01:08;;;;;;;;;;;;;;;21.48;85.38;101854.00;5025976;28;19960;-67
2023/07/17 09:03:36;;;;;;;;;;;;;;;21.64;86.22;101854.75;5028125;28;19913;-73
2023/07/17 09:06:01;;;;;;;;;;;;;;;21.46;87.45;101854.09;5023724;28;20284;-73
2023/07/17 09:08:27;;;;;;;;;;;;;;;21.27;88.50;101860.66;5010454;28;19913;-71
2023/07/17 09:11:02;;;;;;;;;;;;;;;20.99;91.43;101845.47;5011513;28;19944;-75
2023/07/17 09:13:40;;;;;;;;;;;;;;;20.39;98.41;101866.88;5009948;28;19918;-78
2023/07/17 09:16:18;;;;;;;;;;;;;;;20.25;99.39;101868.53;5006457;28;19921;-74
2023/07/17 09:18:43;;;;;;;;;;;;;;;20.35;99.04;101866.22;5014069;28;19952;-68
2023/07/17 09:21:10;;;;;;;;;;;;;;;20.77;97.94;101865.53;5010027;28;19964;-74
2023/07/17 09:23:39;;;;;;;;;;;;;;;21.24;96.13;101868.03;5008901;28;19913;-72
2023/07/17 09:26:05;;;;;;;;;;;;;;;21.66;92.24;101865.38;5003644;28;19920;-72
2023/07/17 09:28:30;;;;;;;;;;;;;;;22.00;90.96;101859.66;5009381;28;19913;-69
2023/07/17 09:31:01;;;;;;;;;;;;;;;21.83;92.72;101861.63;5010177;28;19909;-72
2023/07/17 09:33:26;;;;;;;;;;;;;;;21.61;94.94;101862.97;5025374;28;20059;-74
2023/07/17 09:35:55;;;;;;;;;;;;;;;21.03;99.01;101869.28;5010307;28;20403;-72
2023/07/17 09:38:31;;;;;;;;;;;;;;;20.87;100.00;101873.84;5009123;28;19917;-66
2023/07/17 09:40:56;;;;;;;;;;;;;;;20.90;100.00;101871.88;5019893;28;20009;-74
2023/07/17 09:43:31;;;;;;;;;;;;;;;20.76;100.00;101878.03;5009368;28;20074;-70
2023/07/17 09:46:00;;;;;;;;;;;;;;;21.14;100.00;101876.66;5023181;28;20402;-74
2023/07/17 09:48:26;;;;;;;;;;;;;;;21.34;100.00;101895.97;5012010;28;19928;-72
2023/07/17 09:50:51;;;;;;;;;;;;;;;21.00;100.00;101898.94;5009106;28;20335;-68
2023/07/17 09:53:16;;;;;;;;;;;;;;;20.13;100.00;101910.25;5010028;28;19917;-69
2023/07/17 09:55:41;;;;;;;;;;;;;;;19.66;100.00;101904.81;5007814;28;19917;-77
2023/07/17 09:58:07;;;;;;;;;;;;;;;19.34;100.00;101899.44;5023967;28;19923;-75
2023/07/17 10:00:32;;;;;;;;;;;;;;;19.13;100.00;101898.78;5007950;28;20004;-72
2023/07/17 10:03:08;;;;;;;;;;;;;;;19.12;100.00;101892.59;5010568;28;20012;-75
2023/07/17 10:05:34;;;;;;;;;;;;;;;19.11;100.00;101901.53;5010602;28;19913;-72
2023/07/17 10:07:59;;;;;;;;;;;;;;;19.25;100.00;101899.94;5008721;28;19913;-73
2023/07/17 10:10:25;;;;;;;;;;;;;;;19.37;100.00;101893.94;5011358;28;19918;-76
2023/07/17 10:12:50;;;;;;;;;;;;;;;19.68;100.00;101897.56;5009910;28;19920;-75
2023/07/17 10:15:15;;;;;;;;;;;;;;;20.24;100.00;101901.63;5008497;28;19956;-74
2023/07/17 10:17:40;;;;;;;;;;;;;;;20.48;100.00;101900.25;5010249;28;19956;-79
2023/07/17 10:20:07;;;;;;;;;;;;;;;20.62;100.00;101900.28;5023239;28;20291;-76
2023/07/17 10:22:38;;;;;;;;;;;;;;;20.60;100.00;101899.53;5014622;28;19996;-72
2023/07/17 10:25:09;;;;;;;;;;;;;;;20.47;100.00;101907.44;5010912;28;20469;-77
2023/07/17 10:27:41;;;;;;;;;;;;;;;20.48;100.00;101902.94;5011044;28;19992;-77
2023/07/17 10:30:23;;;;;;;;;;;;;;;20.48;100.00;101911.84;4989497;28;20268;-73
2023/07/17 10:33:08;;;;;;;;;;;;;;;20.60;100.00;101912.03;4991255;28;20471;-77
2023/07/17 10:35:44;;;;;;;;;;;;;;;20.67;100.00;101910.72;5004042;28;20437;-72
2023/07/17 10:38:10;;;;;;;;;;;;;;;20.82;100.00;101916.97;5009704;28;19917;-74
2023/07/17 10:40:35;;;;;;;;;;;;;;;20.75;100.00;101916.50;5009004;28;19913;-64
2023/07/17 10:43:11;;;;;;;;;;;;;;;20.83;100.00;101926.75;5010590;28;19913;-68
2023/07/17 10:45:36;;;;;;;;;;;;;;;20.90;100.00;101925.44;5007902;28;19972;-75
2023/07/17 10:48:01;;;;;;;;;;;;;;;20.87;100.00;101922.91;5009655;28;19921;-76
2023/07/17 10:50:26;;;;;;;;;;;;;;;20.91;100.00;101919.13;5025096;28;19914;-76
2023/07/17 10:52:52;;;;;;;;;;;;;;;21.39;100.00;101920.66;5010328;28;20004;-78
2023/07/17 10:55:17;;;;;;;;;;;;;;;21.94;98.84;101926.16;5010040;28;19918;-72
2023/07/17 10:57:42;;;;;;;;;;;;;;;22.26;96.70;101913.38;5010002;28;19913;-75
2023/07/17 11:00:08;;;;;;;;;;;;;;;22.71;92.38;101919.34;5008516;28;20329;-70
2023/07/17 11:02:33;;;;;;;;;;;;;;;22.64;92.01;101915.34;5009138;28;19937;-75
2023/07/17 11:05:01;;;;;;;;;;;;;;;22.89;88.95;101910.09;5015951;28;20052;-65
2023/07/17 11:07:26;;;;;;;;;;;;;;;23.06;87.66;101900.84;5008618;28;19913;-71
2023/07/17 11:09:52;;;;;;;;;;;;;;;23.09;89.06;101904.16;5007753;28;19914;-70
2023/07/17 11:12:17;;;;;;;;;;;;;;;23.19;89.99;101900.84;5008361;28;20922;-72
2023/07/17 11:14:42;;;;;;;;;;;;;;;23.17;86.72;101914.38;5007517;28;20264;-68
2023/07/17 11:17:13;;;;;;;;;;;;;;;23.13;88.12;101912.88;5009186;28;19925;-74
2023/07/17 11:19:38;;;;;;;;;;;;;;;23.31;88.60;101917.91;5010254;28;20360;-67
2023/07/17 11:22:04;;;;;;;;;;;;;;;23.40;86.64;101917.28;5009441;28;20043;-64
2023/07/17 11:24:30;;;;;;;;;;;;;;;23.68;87.20;101919.78;5009746;28;19960;-72
2023/07/17 11:26:55;;;;;;;;;;;;;;;23.44;83.79;101916.09;5007562;28;19913;-74
2023/07/17 11:29:20;;;;;;;;;;;;;;;23.16;86.75;101907.28;5008211;28;20253;-68
2023/07/17 11:31:45;;;;;;;;;;;;;;;23.28;89.32;101918.13;5027994;28;19932;-73
2023/07/17 11:34:11;;;;;;;;;;;;;;;22.67;89.65;101917.78;5034256;28;19920;-68
2023/07/17 11:36:39;;;;;;;;;;;;;;;22.62;93.52;101911.91;5039957;28;19920;-75
2023/07/17 11:39:12;;;;;;;;;;;;;;;22.35;98.00;101931.56;5034769;28;19917;-68
2023/07/17 11:41:47;;;;;;;;;;;;;;;22.31;98.31;101924.69;5012412;28;19919;-73
2023/07/17 11:44:14;;;;;;;;;;;;;;;22.13;98.11;101929.47;5011204;28;19937;-65
2023/07/17 11:46:39;;;;;;;;;;;;;;;21.99;98.86;101930.34;5011043;28;19928;-77
2023/07/17 11:49:04;;;;;;;;;;;;;;;21.63;100.00;101928.13;5012918;28;19917;-71
2023/07/17 11:51:29;;;;;;;;;;;;;;;21.69;95.87;101927.72;5011156;28;20021;-75
2023/07/17 11:53:55;;;;;;;;;;;;;;;21.96;95.56;101926.94;5011190;28;20000;-77
2023/07/17 11:56:21;;;;;;;;;;;;;;;22.26;93.69;101918.75;5017999;28;20020;-72
2023/07/17 11:58:50;;;;;;;;;;;;;;;22.22;92.36;101926.16;5003239;28;19914;-67
2023/07/17 12:01:15;;;;;;;;;;;;;;;22.15;91.54;101914.13;5010559;28;19914;-75
2023/07/17 12:03:41;;;;;;;;;;;;;;;22.11;93.22;101915.25;5016678;28;19924;-70
2023/07/17 12:06:06;;;;;;;;;;;;;;;21.78;93.52;101920.06;5014112;28;20012;-73
2023/07/17 12:08:31;;;;;;;;;;;;;;;21.72;92.19;101921.28;5013152;28;20003;-72
2023/07/17 12:10:57;;;;;;;;;;;;;;;21.79;90.76;101916.44;5011571;28;20011;-75
2023/07/17 12:13:22;;;;;;;;;;;;;;;21.83;86.55;101920.66;5011115;28;19913;-66
2023/07/17 12:15:47;;;;;;;;;;;;;;;21.99;86.77;101922.31;5010424;28;19953;-69
2023/07/17 12:18:12;;;;;;;;;;;;;;;22.86;87.06;101919.22;5015062;28;19913;-70
2023/07/17 12:20:38;;;;;;;;;;;;;;;23.30;84.14;101926.97;5010824;28;20028;-69
2023/07/17 12:23:05;;;;;;;;;;;;;;;23.83;80.05;101918.69;5010483;28;19964;-71